Northwest Sanderling — VNVZ — position and weather

sailwx.info

Track history (hours):
 
Tides and Currents Weather Stations Pressure Air Temp Water Temp Dewpoint Dewpoint Depression Visibility Wind Speed Wind Dir Waves Ship Positions

Northwest Sanderling

Last reported at 2017-Aug-16 00:00 UTC. Time now 2017-Aug-16 21:38 UTC.
Position S 17°00' E 118°36'.

Length 272 m; beam 47.2 m; draft 11.4 m.

Type: Ship (hazmat cat A). MMSI: 503000050.

Wind from 230 at 23 knots

Barometer 1014.5 mb
Air temperature 24.4 ° C
Visibility: greater than 10.8 NM
Dewpoint 24.4 ° C
Water temperature 26.5 ° C

Date/timePositionNaut miles runAvg speedWind from/ knotsBaromVisibWave heightAir tempDewpointWater temp
2017-Aug-16 00:00S 17°00' E 118°36'16414.6 230 / 231014.510.8 24.424.426.5
2017-Aug-15 12:46S 19°27' E 117°18'413.9
2017-Aug-15 12:29S 19°30' E 117°16'713.7
2017-Aug-15 12:00S 19°35' E 117°12'713.9
2017-Aug-15 11:29S 19°41' E 117°08'714.4
2017-Aug-15 11:00S 19°47' E 117°05'714.6
2017-Aug-15 10:30S 19°54' E 117°01'814.8
2017-Aug-15 09:59S 20°00' E 116°56'714.7
2017-Aug-15 09:30S 20°06' E 116°52'715.0
2017-Aug-15 09:00S 20°13' E 116°48'714.4
2017-Aug-15 08:30S 20°19' E 116°44'611.2
2017-Aug-15 08:00S 20°24' E 116°43'5 8.4
2017-Aug-15 07:24S 20°29' E 116°45'1 1.9
2017-Aug-15 07:00S 20°30' E 116°45'0 0.7
2017-Aug-15 06:30S 20°30' E 116°45'2 4.7
2017-Aug-15 06:00S 20°32' E 116°43'3 6.6
2017-Aug-15 05:29S 20°35' E 116°45'1 1.6
2017-Aug-15 04:59S 20°35' E 116°46'0 0.0
2017-Aug-14 06:02S 20°35' E 116°46'0 0.0
2017-Aug-14 06:00S 20°35' E 116°46'0 0.0
2017-Aug-14 05:29S 20°35' E 116°46'0 0.5
2017-Aug-14 04:58S 20°35' E 116°46'3 5.3
2017-Aug-14 04:28S 20°33' E 116°44'3 7.0
2017-Aug-14 04:00S 20°30' E 116°45'6 6.0
2017-Aug-14 02:57S 20°24' E 116°44'5 9.2
2017-Aug-14 02:25S 20°19' E 116°44'1511.2
2017-Aug-14 01:07S 20°09' E 116°55'313.9
2017-Aug-14 00:54S 20°07' E 116°58'913.7
2017-Aug-14 00:16S 20°02' E 117°05'413.1
2017-Aug-14 00:00S 19°59' E 117°08'4 7.7
2017-Aug-13 23:27S 19°60' E 117°03'1610.7
2017-Aug-13 21:56S 19°46' E 117°12'613.5
2017-Aug-13 21:30S 19°40' E 117°14'4 8.7
2017-Aug-13 21:00S 19°37' E 117°17'714.8
2017-Aug-13 20:30S 19°44' E 117°14'714.9
2017-Aug-13 20:00S 19°51' E 117°11'714.8
2017-Aug-13 19:30S 19°57' E 117°07'611.6
2017-Aug-13 19:00S 20°03' E 117°07'612.2
2017-Aug-13 18:29S 19°57' E 117°09'714.1
2017-Aug-13 17:59S 19°50' E 117°11'714.1
2017-Aug-13 17:30S 19°44' E 117°12'713.5
2017-Aug-13 17:00S 19°37' E 117°15'5 9.6
2017-Aug-13 16:28S 19°42' E 117°16'614.2
2017-Aug-13 16:00S 19°48' E 117°13'714.3
2017-Aug-13 15:30S 19°55' E 117°11'713.9
2017-Aug-13 15:00S 20°01' E 117°07'4 7.0
2017-Aug-13 14:29S 19°58' E 117°10'714.4
2017-Aug-13 14:00S 19°52' E 117°12'1514.3
2017-Aug-13 12:56S 19°37' E 117°15'4 8.5
2017-Aug-13 12:30S 19°40' E 117°15'714.5
2017-Aug-13 12:00S 19°47' E 117°12'714.7
2017-Aug-13 11:30S 19°54' E 117°09'714.6
2017-Aug-13 11:00S 20°00' E 117°05'2 4.7
2017-Aug-13 10:30S 20°01' E 117°07'713.8
2017-Aug-13 10:00S 19°54' E 117°09'713.6
2017-Aug-13 09:30S 19°48' E 117°11'2 0.5
2017-Aug-13 05:05S 19°47' E 117°13'214.5
2017-Aug-13 04:59S 19°46' E 117°13'812.5
2017-Aug-13 04:19S 19°39' E 117°17'413.6
2017-Aug-13 04:00S 19°43' E 117°16'815.2
2017-Aug-13 03:30S 19°50' E 117°13'815.2
2017-Aug-13 02:58S 19°57' E 117°09'2110.5
2017-Aug-13 00:59S 19°38' E 117°17'814.7
2017-Aug-13 00:26S 19°45' E 117°13'614.8
2017-Aug-13 00:00S 19°51' E 117°11'714.7
2017-Aug-12 23:30S 19°57' E 117°07'10 6.1
2017-Aug-12 21:52S 19°48' E 117°11'513.7
2017-Aug-12 21:30S 19°43' E 117°13'613.0
2017-Aug-12 21:00S 19°37' E 117°15'611.5
2017-Aug-12 20:30S 19°43' E 117°14'815.1
2017-Aug-12 20:00S 19°50' E 117°10'1114.9
2017-Aug-12 19:14S 19°60' E 117°04'612.3
2017-Aug-12 18:44S 20°03' E 116°58'25613.6
2017-Aug-12 00:00S 16°18' E 119°06'35514.8 020 / 221015.510.8 26.420.428.5
2017-Aug-11 00:00S 11°06' E 122°00'35214.6 010 / 251013.910.8 26.426.428.5
2017-Aug-10 00:00S 06°18' E 125°24'   340 / 321012.2 5.4 26.426.428.5
Track history (hours):
 
Tides and Currents Weather Stations Pressure Air Temp Water Temp Dewpoint Dewpoint Depression Visibility Wind Speed Wind Dir Waves Ship Positions

Northwest Sanderling

Last reported at 2017-Aug-16 00:00 UTC. Time now 2017-Aug-16 21:38 UTC.
Position S 17°00' E 118°36'.

Length 272 m; beam 47.2 m; draft 11.4 m.

Type: Ship (hazmat cat A). MMSI: 503000050.

Wind from 230 at 23 knots

Barometer 1014.5 mb
Air temperature 24.4 ° C
Visibility: greater than 10.8 NM
Dewpoint 24.4 ° C
Water temperature 26.5 ° C

Date/timePositionNaut miles runAvg speedWind from/ knotsBaromVisibWave heightAir tempDewpointWater temp
2017-Aug-16 00:00S 17°00' E 118°36'16414.6 230 / 231014.510.8 24.424.426.5
2017-Aug-15 12:46S 19°27' E 117°18'413.9
2017-Aug-15 12:29S 19°30' E 117°16'713.7
2017-Aug-15 12:00S 19°35' E 117°12'713.9
2017-Aug-15 11:29S 19°41' E 117°08'714.4
2017-Aug-15 11:00S 19°47' E 117°05'714.6
2017-Aug-15 10:30S 19°54' E 117°01'814.8
2017-Aug-15 09:59S 20°00' E 116°56'714.7
2017-Aug-15 09:30S 20°06' E 116°52'715.0
2017-Aug-15 09:00S 20°13' E 116°48'714.4
2017-Aug-15 08:30S 20°19' E 116°44'611.2
2017-Aug-15 08:00S 20°24' E 116°43'5 8.4
2017-Aug-15 07:24S 20°29' E 116°45'1 1.9
2017-Aug-15 07:00S 20°30' E 116°45'0 0.7
2017-Aug-15 06:30S 20°30' E 116°45'2 4.7
2017-Aug-15 06:00S 20°32' E 116°43'3 6.6
2017-Aug-15 05:29S 20°35' E 116°45'1 1.6
2017-Aug-15 04:59S 20°35' E 116°46'0 0.0
2017-Aug-14 06:02S 20°35' E 116°46'0 0.0
2017-Aug-14 06:00S 20°35' E 116°46'0 0.0
2017-Aug-14 05:29S 20°35' E 116°46'0 0.5
2017-Aug-14 04:58S 20°35' E 116°46'3 5.3
2017-Aug-14 04:28S 20°33' E 116°44'3 7.0
2017-Aug-14 04:00S 20°30' E 116°45'6 6.0
2017-Aug-14 02:57S 20°24' E 116°44'5 9.2
2017-Aug-14 02:25S 20°19' E 116°44'1511.2
2017-Aug-14 01:07S 20°09' E 116°55'313.9
2017-Aug-14 00:54S 20°07' E 116°58'913.7
2017-Aug-14 00:16S 20°02' E 117°05'413.1
2017-Aug-14 00:00S 19°59' E 117°08'4 7.7
2017-Aug-13 23:27S 19°60' E 117°03'1610.7
2017-Aug-13 21:56S 19°46' E 117°12'613.5
2017-Aug-13 21:30S 19°40' E 117°14'4 8.7
2017-Aug-13 21:00S 19°37' E 117°17'714.8
2017-Aug-13 20:30S 19°44' E 117°14'714.9
2017-Aug-13 20:00S 19°51' E 117°11'714.8
2017-Aug-13 19:30S 19°57' E 117°07'611.6
2017-Aug-13 19:00S 20°03' E 117°07'612.2
2017-Aug-13 18:29S 19°57' E 117°09'714.1
2017-Aug-13 17:59S 19°50' E 117°11'714.1
2017-Aug-13 17:30S 19°44' E 117°12'713.5
2017-Aug-13 17:00S 19°37' E 117°15'5 9.6
2017-Aug-13 16:28S 19°42' E 117°16'614.2
2017-Aug-13 16:00S 19°48' E 117°13'714.3
2017-Aug-13 15:30S 19°55' E 117°11'713.9
2017-Aug-13 15:00S 20°01' E 117°07'4 7.0
2017-Aug-13 14:29S 19°58' E 117°10'714.4
2017-Aug-13 14:00S 19°52' E 117°12'1514.3
2017-Aug-13 12:56S 19°37' E 117°15'4 8.5
2017-Aug-13 12:30S 19°40' E 117°15'714.5
2017-Aug-13 12:00S 19°47' E 117°12'714.7
2017-Aug-13 11:30S 19°54' E 117°09'714.6
2017-Aug-13 11:00S 20°00' E 117°05'2 4.7
2017-Aug-13 10:30S 20°01' E 117°07'713.8
2017-Aug-13 10:00S 19°54' E 117°09'713.6
2017-Aug-13 09:30S 19°48' E 117°11'2 0.5
2017-Aug-13 05:05S 19°47' E 117°13'214.5
2017-Aug-13 04:59S 19°46' E 117°13'812.5
2017-Aug-13 04:19S 19°39' E 117°17'413.6
2017-Aug-13 04:00S 19°43' E 117°16'815.2
2017-Aug-13 03:30S 19°50' E 117°13'815.2
2017-Aug-13 02:58S 19°57' E 117°09'2110.5
2017-Aug-13 00:59S 19°38' E 117°17'814.7
2017-Aug-13 00:26S 19°45' E 117°13'614.8
2017-Aug-13 00:00S 19°51' E 117°11'714.7
2017-Aug-12 23:30S 19°57' E 117°07'10 6.1
2017-Aug-12 21:52S 19°48' E 117°11'513.7
2017-Aug-12 21:30S 19°43' E 117°13'613.0
2017-Aug-12 21:00S 19°37' E 117°15'611.5
2017-Aug-12 20:30S 19°43' E 117°14'815.1
2017-Aug-12 20:00S 19°50' E 117°10'1114.9
2017-Aug-12 19:14S 19°60' E 117°04'612.3
2017-Aug-12 18:44S 20°03' E 116°58'25613.6
2017-Aug-12 00:00S 16°18' E 119°06'35514.8 020 / 221015.510.8 26.420.428.5
2017-Aug-11 00:00S 11°06' E 122°00'35214.6 010 / 251013.910.8 26.426.428.5
2017-Aug-10 00:00S 06°18' E 125°24'   340 / 321012.2 5.4 26.426.428.5

Dump ship's entire track history